Time;durP1;ratioP1;P1;durP2;ratioP2;P2;SDS_P1;SDS_P2;PMS_P1;PMS_P2;Temp;Humidity;BMP_temperature;BMP_pressure;BME280_temperature;BME280_humidity;BME280_pressure;Samples;Min_cycle;Max_cycle;Signal;HPM_P1;HPM_P2
2023/06/29 00:00:23;;;;;;;15.88;11.57;;;;;;;16.01;85.62;98560.34;5070448;28;20027;-55
2023/06/29 00:02:49;;;;;;;15.50;11.98;;;;;;;15.69;86.01;98521.13;5072144;28;20060;-55
2023/06/29 00:05:15;;;;;;;17.08;11.95;;;;;;;15.91;85.97;98552.56;5076491;28;20074;-54
2023/06/29 00:07:41;;;;;;;15.10;12.07;;;;;;;15.92;85.39;98548.84;5076182;28;20036;-56
2023/06/29 00:10:09;;;;;;;16.42;12.50;;;;;;;15.85;85.83;98542.47;5076372;28;20078;-58
2023/06/29 00:12:35;;;;;;;15.73;13.05;;;;;;;15.82;86.22;98537.47;5077331;28;20033;-56
2023/06/29 00:15:01;;;;;;;16.52;12.73;;;;;;;15.84;86.77;98535.41;5076411;28;20048;-54
2023/06/29 00:17:29;;;;;;;14.30;12.73;;;;;;;15.79;86.71;98527.06;5076280;28;20036;-53
2023/06/29 00:19:55;;;;;;;19.90;13.95;;;;;;;15.76;87.49;98527.44;5076383;28;20118;-59
2023/06/29 00:22:21;;;;;;;17.60;13.80;;;;;;;15.77;87.73;98534.50;5077148;28;20379;-54
2023/06/29 00:24:54;;;;;;;13.55;11.35;;;;;;;15.92;86.60;98529.09;5076206;28;20043;-51
2023/06/29 00:27:21;;;;;;;12.60;10.73;;;;;;;15.83;86.75;98527.53;5076528;28;20108;-55
2023/06/29 00:29:46;;;;;;;12.63;9.25;;;;;;;15.80;86.67;98534.13;5076007;28;20032;-50
2023/06/29 00:32:12;;;;;;;10.52;9.48;;;;;;;15.78;86.74;98522.69;5075927;28;20025;-52
2023/06/29 00:34:38;;;;;;;12.15;10.23;;;;;;;15.58;86.99;98488.19;5075959;28;20063;-55
2023/06/29 00:37:04;;;;;;;12.23;10.57;;;;;;;15.83;87.47;98520.25;5075704;28;20067;-53
2023/06/29 00:39:31;;;;;;;12.02;9.77;;;;;;;15.84;87.19;98515.69;5075950;28;20037;-52
2023/06/29 00:41:56;;;;;;;11.25;9.77;;;;;;;15.72;86.91;98499.16;5075933;28;20089;-55
2023/06/29 00:44:22;;;;;;;13.80;10.18;;;;;;;15.86;87.05;98517.16;5075931;28;20033;-53
2023/06/29 00:46:50;;;;;;;10.93;9.82;;;;;;;15.90;87.19;98513.06;5076845;28;20331;-57
2023/06/29 00:49:16;;;;;;;9.95;8.85;;;;;;;15.96;86.73;98516.88;5075856;28;20032;-56
2023/06/29 00:51:47;;;;;;;10.63;9.32;;;;;;;15.92;86.60;98500.25;5075393;28;20055;-54
2023/06/29 00:54:13;;;;;;;10.88;9.73;;;;;;;15.95;87.72;98500.91;5075642;28;20050;-55
2023/06/29 00:56:39;;;;;;;11.10;9.32;;;;;;;16.03;86.66;98506.16;5074908;28;20035;-52
2023/06/29 00:59:04;;;;;;;9.90;9.00;;;;;;;15.85;86.44;98475.00;5075497;28;20451;-50
2023/06/29 01:01:30;;;;;;;10.43;9.35;;;;;;;16.06;86.65;98508.47;5075049;28;20036;-48
2023/06/29 01:03:59;;;;;;;10.32;9.27;;;;;;;16.03;86.26;98495.38;5076105;28;20064;-58
2023/06/29 01:06:31;;;;;;;10.48;9.45;;;;;;;16.15;87.17;98501.91;5077000;28;20051;-54
2023/06/29 01:09:05;;;;;;;9.88;8.43;;;;;;;16.19;86.41;98500.53;5075910;28;20125;-56
2023/06/29 01:11:36;;;;;;;9.48;8.57;;;;;;;16.23;86.84;98492.03;5076337;28;20035;-50
2023/06/29 01:14:05;;;;;;;8.65;7.80;;;;;;;16.20;86.20;98486.00;5075326;28;20024;-51
2023/06/29 01:16:32;;;;;;;9.65;8.43;;;;;;;16.22;86.53;98504.69;5075395;28;20111;-49
2023/06/29 01:19:01;;;;;;;10.35;9.35;;;;;;;16.19;87.00;98488.88;5074177;28;20045;-60
2023/06/29 01:21:30;;;;;;;9.15;8.25;;;;;;;16.28;85.92;98492.28;5075477;28;20063;-51
2023/06/29 01:23:59;;;;;;;9.55;8.48;;;;;;;16.08;86.51;98460.53;5075437;28;20052;-51
2023/06/29 01:26:25;;;;;;;9.38;8.48;;;;;;;16.21;86.79;98481.41;5076322;28;20041;-49
2023/06/29 01:28:51;;;;;;;9.52;8.63;;;;;;;16.34;86.80;98494.19;5075027;28;20051;-52
2023/06/29 01:31:17;;;;;;;9.23;8.32;;;;;;;16.38;86.86;98490.06;5073795;28;20465;-53
2023/06/29 01:33:43;;;;;;;9.65;8.40;;;;;;;16.40;86.67;98479.94;5075030;28;20025;-52
2023/06/29 01:36:21;;;;;;;10.02;9.02;;;;;;;16.35;86.63;98463.44;5074785;28;20039;-50
2023/06/29 01:39:12;;;;;;;10.27;9.18;;;;;;;16.24;86.83;98423.50;5074725;28;20039;-52
2023/06/29 01:41:40;;;;;;;10.38;9.27;;;;;;;16.50;86.07;98474.16;5074874;28;20378;-53
2023/06/29 01:44:09;;;;;;;11.60;9.82;;;;;;;16.48;85.88;98471.69;5074852;28;20075;-55
2023/06/29 01:46:35;;;;;;;11.43;9.60;;;;;;;16.45;86.67;98480.19;5074753;28;20127;-56
2023/06/29 01:49:01;;;;;;;11.57;10.02;;;;;;;16.48;86.71;98465.44;5074841;28;20107;-53
2023/06/29 01:51:26;;;;;;;12.38;11.07;;;;;;;16.57;86.50;98468.81;5075591;28;20028;-54
2023/06/29 01:53:53;;;;;;;12.52;11.20;;;;;;;16.58;86.20;98465.94;5073816;28;20044;-51
2023/06/29 01:56:19;;;;;;;12.55;11.35;;;;;;;16.56;85.96;98464.44;5074615;28;20020;-52
2023/06/29 01:58:44;;;;;;;12.20;10.70;;;;;;;16.58;85.91;98459.69;5074282;28;20035;-50
2023/06/29 02:01:10;;;;;;;12.13;10.82;;;;;;;16.66;86.41;98467.66;5073943;28;20457;-52
2023/06/29 02:03:35;;;;;;;12.55;10.80;;;;;;;16.68;86.57;98464.75;5074357;28;20024;-50
2023/06/29 02:06:01;;;;;;;13.95;11.50;;;;;;;16.70;86.36;98460.81;5074341;28;20024;-60
2023/06/29 02:08:27;;;;;;;13.40;12.00;;;;;;;16.73;86.47;98460.44;5074559;28;20371;-56
2023/06/29 02:10:52;;;;;;;15.63;13.77;;;;;;;16.78;86.32;98465.25;5074223;28;20036;-51
2023/06/29 02:13:18;;;;;;;16.58;14.55;;;;;;;16.77;85.95;98459.00;5073203;28;20028;-55
2023/06/29 02:15:44;;;;;;;18.33;16.52;;;;;;;16.71;85.88;98450.84;5073513;28;20040;-53
2023/06/29 02:18:10;;;;;;;19.95;17.17;;;;;;;16.75;86.04;98463.75;5074162;28;20024;-56
2023/06/29 02:20:35;;;;;;;21.08;18.25;;;;;;;16.79;85.95;98469.63;5073871;28;20059;-52
2023/06/29 02:23:01;;;;;;;21.63;18.50;;;;;;;16.81;85.78;98461.28;5074264;28;20075;-50
2023/06/29 02:25:26;;;;;;;25.52;19.88;;;;;;;16.80;85.41;98460.47;5074478;28;20032;-47
2023/06/29 02:27:52;;;;;;;24.33;20.08;;;;;;;16.81;85.16;98470.25;5073736;28;20040;-51
2023/06/29 02:30:17;;;;;;;24.45;20.00;;;;;;;16.71;84.73;98459.78;5073760;28;20028;-52
2023/06/29 02:32:43;;;;;;;22.25;19.63;;;;;;;16.69;84.40;98466.41;5073818;28;20467;-54
2023/06/29 02:35:09;;;;;;;20.80;18.58;;;;;;;16.61;84.78;98470.09;5074828;28;20021;-51
2023/06/29 02:37:34;;;;;;;20.38;18.17;;;;;;;16.57;84.72;98474.22;5073713;28;20147;-53
2023/06/29 02:40:00;;;;;;;21.00;17.48;;;;;;;16.55;85.00;98477.13;5074142;28;20025;-53
2023/06/29 02:42:26;;;;;;;19.95;17.63;;;;;;;16.52;84.50;98471.28;5073889;28;20480;-54
2023/06/29 02:44:51;;;;;;;18.75;16.27;;;;;;;16.56;84.64;98480.66;5073304;28;20450;-52
2023/06/29 02:47:17;;;;;;;17.30;15.23;;;;;;;16.55;84.67;98482.53;5073033;28;20026;-52
2023/06/29 02:49:42;;;;;;;16.52;14.80;;;;;;;16.52;84.20;98482.09;5073189;28;20031;-52
2023/06/29 02:52:08;;;;;;;15.95;14.15;;;;;;;16.61;84.04;98486.31;5072972;28;20378;-53
2023/06/29 02:54:33;;;;;;;15.10;13.50;;;;;;;16.66;82.89;98483.88;5073129;28;20060;-58
2023/06/29 02:56:59;;;;;;;15.75;12.82;;;;;;;16.59;82.29;98488.38;5073160;28;20028;-54
2023/06/29 02:59:24;;;;;;;13.55;12.15;;;;;;;16.56;82.13;98495.03;5073191;28;20084;-53
2023/06/29 03:01:50;;;;;;;13.73;12.23;;;;;;;16.54;82.22;98496.22;5073446;28;20408;-54
2023/06/29 03:04:15;;;;;;;13.65;11.10;;;;;;;16.42;82.11;98494.06;5073983;28;20040;-53
2023/06/29 03:06:41;;;;;;;12.02;10.43;;;;;;;16.47;82.03;98494.31;5072920;28;20021;-54
2023/06/29 03:09:06;;;;;;;11.23;10.13;;;;;;;16.43;81.47;98495.75;5073336;28;20110;-54
2023/06/29 03:11:32;;;;;;;11.45;10.20;;;;;;;16.55;81.91;98516.81;5073604;28;20040;-56
2023/06/29 03:13:57;;;;;;;11.10;9.88;;;;;;;16.74;81.51;98508.03;5072781;28;20081;-54
2023/06/29 03:16:23;;;;;;;10.55;9.43;;;;;;;16.99;80.00;98509.47;5073632;28;20036;-55
2023/06/29 03:18:49;;;;;;;10.23;9.18;;;;;;;17.11;79.08;98517.88;5073072;28;20435;-54
2023/06/29 03:21:19;;;;;;;10.20;9.20;;;;;;;17.06;78.19;98499.56;5073171;28;20060;-49
2023/06/29 03:23:46;;;;;;;10.45;9.35;;;;;;;17.17;77.31;98522.50;5072811;28;20028;-51
2023/06/29 03:26:12;;;;;;;11.18;10.05;;;;;;;17.19;77.90;98525.84;5072722;28;20032;-51
2023/06/29 03:28:38;;;;;;;9.57;8.68;;;;;;;17.28;77.42;98508.41;5072854;28;20162;-51
2023/06/29 03:31:03;;;;;;;11.15;8.38;;;;;;;17.54;76.98;98501.44;5074230;28;20430;-52
2023/06/29 03:33:29;;;;;;;10.15;7.88;;;;;;;18.18;75.87;98520.19;5072859;28;20039;-51
2023/06/29 03:35:54;;;;;;;7.35;6.63;;;;;;;18.72;72.99;98515.66;5072669;28;20103;-53
2023/06/29 03:38:20;;;;;;;9.35;6.07;;;;;;;19.04;70.90;98509.59;5071836;28;20458;-52
2023/06/29 03:40:46;;;;;;;7.15;5.38;;;;;;;19.27;69.53;98517.25;5072514;28;20132;-51
2023/06/29 03:43:11;;;;;;;6.70;5.72;;;;;;;19.32;68.23;98516.63;5072455;28;20039;-51
2023/06/29 03:45:37;;;;;;;5.78;5.20;;;;;;;19.28;68.04;98509.97;5072485;28;20082;-56
2023/06/29 03:48:02;;;;;;;5.85;5.35;;;;;;;19.31;68.06;98513.09;5072947;28;20029;-52
2023/06/29 03:50:28;;;;;;;5.45;4.95;;;;;;;19.26;67.30;98523.72;5072505;28;20034;-53
2023/06/29 03:52:54;;;;;;;8.10;5.68;;;;;;;19.18;68.00;98526.69;5072449;28;20028;-52
2023/06/29 03:55:20;;;;;;;5.32;4.82;;;;;;;19.15;67.98;98516.25;5073390;28;20412;-53
2023/06/29 03:57:46;;;;;;;6.15;5.55;;;;;;;19.02;68.06;98522.53;5072319;28;20116;-51
2023/06/29 04:00:12;;;;;;;5.68;5.18;;;;;;;18.94;68.51;98520.84;5072165;28;20136;-51
2023/06/29 04:02:37;;;;;;;5.65;5.05;;;;;;;18.77;69.07;98520.47;5072421;28;20068;-58
2023/06/29 04:05:03;;;;;;;5.97;5.32;;;;;;;18.61;69.35;98530.66;5072543;28;20103;-48
2023/06/29 04:07:29;;;;;;;6.28;5.60;;;;;;;18.43;70.09;98531.28;5071874;28;20500;-50
2023/06/29 04:09:55;;;;;;;6.05;5.22;;;;;;;18.37;70.51;98529.41;5071789;28;20052;-52
2023/06/29 04:12:20;;;;;;;5.15;4.68;;;;;;;18.36;70.47;98536.69;5072352;28;20043;-52
2023/06/29 04:14:46;;;;;;;5.13;4.63;;;;;;;18.17;69.70;98499.56;5072425;28;20366;-52
2023/06/29 04:17:11;;;;;;;5.57;4.88;;;;;;;18.28;69.92;98527.91;5072140;28;20056;-51
2023/06/29 04:19:37;;;;;;;6.50;5.10;;;;;;;18.21;69.49;98523.34;5072457;28;20114;-51
2023/06/29 04:22:03;;;;;;;5.68;5.18;;;;;;;18.10;69.68;98521.25;5072394;28;20029;-53
2023/06/29 04:24:28;;;;;;;6.65;5.03;;;;;;;18.10;70.17;98523.94;5071557;28;20039;-48
2023/06/29 04:26:54;;;;;;;5.40;4.93;;;;;;;18.13;70.72;98519.97;5090124;28;20016;-51
2023/06/29 04:29:20;;;;;;;6.15;5.00;;;;;;;18.13;70.30;98515.41;5092665;28;20097;-55
2023/06/29 04:31:45;;;;;;;8.35;5.30;;;;;;;18.04;69.26;98516.63;5090603;28;20039;-57
2023/06/29 04:34:16;;;;;;;6.95;5.28;;;;;;;17.97;69.71;98504.91;5092093;28;20335;-56
2023/06/29 04:36:45;;;;;;;7.10;5.30;;;;;;;17.85;69.80;98507.38;5082285;28;20029;-52
2023/06/29 04:39:13;;;;;;;6.93;5.55;;;;;;;17.91;70.50;98534.50;5071579;28;20131;-52
2023/06/29 04:41:40;;;;;;;6.68;6.03;;;;;;;17.87;70.27;98526.97;5071191;28;20047;-51
2023/06/29 04:44:08;;;;;;;7.80;6.45;;;;;;;17.76;69.79;98521.13;5070524;28;20443;-52
2023/06/29 04:46:38;;;;;;;6.93;6.22;;;;;;;17.74;70.36;98538.59;5071293;28;20059;-54
2023/06/29 04:49:05;;;;;;;7.53;6.75;;;;;;;17.46;69.79;98509.75;5072432;28;20089;-57
2023/06/29 04:51:30;;;;;;;8.95;7.00;;;;;;;17.48;70.50;98532.03;5075110;28;20123;-58
2023/06/29 04:53:56;;;;;;;7.10;6.07;;;;;;;17.43;71.09;98534.50;5075541;28;20108;-53
2023/06/29 04:56:21;;;;;;;7.50;6.25;;;;;;;17.47;71.49;98539.28;5089887;28;20111;-52
2023/06/29 04:58:47;;;;;;;8.25;7.10;;;;;;;17.48;71.07;98540.13;5091828;28;20155;-53
2023/06/29 05:01:12;;;;;;;11.02;6.40;;;;;;;17.38;70.26;98509.94;5075255;28;20352;-53
2023/06/29 05:03:38;;;;;;;6.68;6.07;;;;;;;17.52;70.71;98530.56;5075513;28;20040;-54
2023/06/29 05:06:04;;;;;;;6.20;5.60;;;;;;;17.59;69.87;98536.84;5075556;28;20028;-52
2023/06/29 05:08:30;;;;;;;6.30;5.70;;;;;;;17.44;69.52;98517.22;5075305;28;20060;-50
2023/06/29 05:10:55;;;;;;;6.30;5.70;;;;;;;17.50;69.70;98522.69;5083352;28;20025;-54
2023/06/29 05:13:21;;;;;;;6.30;5.43;;;;;;;17.68;68.94;98539.41;5075011;28;20101;-53
2023/06/29 05:15:48;;;;;;;6.05;5.15;;;;;;;17.76;68.66;98533.81;5075138;28;20033;-53
2023/06/29 05:18:14;;;;;;;6.35;4.93;;;;;;;17.92;68.18;98538.88;5074977;28;20029;-51
2023/06/29 05:20:40;;;;;;;7.88;5.18;;;;;;;18.21;66.51;98528.75;5091363;28;20079;-48
2023/06/29 05:23:06;;;;;;;5.40;4.88;;;;;;;18.62;65.47;98531.50;5095280;28;20388;-53
2023/06/29 05:25:31;;;;;;;5.80;5.00;;;;;;;19.06;64.17;98538.19;5095202;28;20024;-54
2023/06/29 05:27:57;;;;;;;5.13;4.72;;;;;;;19.62;62.92;98537.81;5095133;28;20046;-54
2023/06/29 05:30:23;;;;;;;6.97;4.55;;;;;;;20.18;61.15;98530.06;5081217;28;20032;-50
2023/06/29 05:32:48;;;;;;;4.72;4.35;;;;;;;20.53;59.55;98542.38;5074781;28;20041;-53
2023/06/29 05:35:14;;;;;;;6.60;4.88;;;;;;;20.53;59.41;98510.56;5074865;28;20462;-54
2023/06/29 05:37:40;;;;;;;5.90;5.32;;;;;;;20.99;58.59;98541.19;5075213;28;20094;-53
2023/06/29 05:40:06;;;;;;;5.20;4.70;;;;;;;21.23;57.32;98536.75;5073175;28;20025;-53
2023/06/29 05:42:32;;;;;;;6.53;4.80;;;;;;;21.46;56.63;98534.41;5074663;28;20044;-55
2023/06/29 05:44:58;;;;;;;5.18;4.22;;;;;;;21.71;55.46;98541.72;5074811;28;20025;-50
2023/06/29 05:47:24;;;;;;;7.07;4.63;;;;;;;21.98;54.65;98541.38;5074503;28;20035;-54
2023/06/29 05:49:50;;;;;;;6.97;4.30;;;;;;;22.82;52.62;98545.16;5073836;28;20108;-55
2023/06/29 05:52:15;;;;;;;4.88;4.03;;;;;;;23.60;50.87;98545.06;5074528;28;20089;-50
2023/06/29 05:54:41;;;;;;;6.38;4.10;;;;;;;24.59;49.04;98545.00;5074728;28;20033;-52
2023/06/29 05:57:06;;;;;;;4.55;4.15;;;;;;;24.74;47.67;98548.00;5074484;28;20059;-53
2023/06/29 05:59:32;;;;;;;4.03;3.72;;;;;;;25.44;46.40;98544.97;5073764;28;20401;-53
2023/06/29 06:01:58;;;;;;;4.25;3.88;;;;;;;25.90;44.41;98555.72;5074503;28;20024;-52
2023/06/29 06:04:24;;;;;;;3.50;3.20;;;;;;;25.86;44.47;98548.25;5074364;28;20147;-57
2023/06/29 06:06:49;;;;;;;4.20;3.65;;;;;;;26.21;43.54;98544.28;5074119;28;20024;-50
2023/06/29 06:09:15;;;;;;;4.95;3.58;;;;;;;27.03;41.95;98552.44;5075250;28;20031;-56
2023/06/29 06:11:41;;;;;;;6.28;3.90;;;;;;;26.83;42.44;98538.53;5074282;28;20109;-52
2023/06/29 06:14:06;;;;;;;4.82;3.80;;;;;;;26.36;42.82;98538.13;5073890;28;20111;-55
2023/06/29 06:16:32;;;;;;;4.75;3.35;;;;;;;25.72;43.58;98547.81;5073931;28;20043;-54
2023/06/29 06:18:57;;;;;;;5.43;3.25;;;;;;;25.17;44.55;98545.69;5073496;28;20040;-54
2023/06/29 06:21:26;;;;;;;4.70;3.47;;;;;;;24.80;45.53;98536.09;5074519;28;20470;-52
2023/06/29 06:23:52;;;;;;;3.95;3.55;;;;;;;24.56;46.14;98540.03;5073579;28;20047;-52
2023/06/29 06:26:17;;;;;;;3.70;3.40;;;;;;;24.34;46.15;98527.06;5073771;28;20127;-55
2023/06/29 06:28:43;;;;;;;3.60;3.22;;;;;;;24.74;45.53;98531.59;5073693;28;20024;-51
2023/06/29 06:31:08;;;;;;;3.90;3.60;;;;;;;27.42;39.76;98531.22;5093290;28;20113;-48
2023/06/29 06:33:34;;;;;;;3.40;3.10;;;;;;;31.02;33.81;98541.09;5094133;28;20370;-48
2023/06/29 06:35:59;;;;;;;3.78;3.03;;;;;;;32.31;31.01;98538.75;5093874;28;20024;-50
2023/06/29 06:38:25;;;;;;;3.42;3.10;;;;;;;32.32;30.84;98536.81;5092765;28;20060;-49
2023/06/29 06:40:51;;;;;;;4.88;3.10;;;;;;;33.51;28.13;98523.69;5080425;28;20185;-54
2023/06/29 06:43:17;;;;;;;4.80;2.80;;;;;;;34.96;25.96;98537.09;5093639;28;20053;-57
2023/06/29 06:45:43;;;;;;;3.50;3.20;;;;;;;35.06;25.54;98547.16;5094085;28;20062;-53
2023/06/29 06:48:09;;;;;;;4.10;3.70;;;;;;;34.05;27.23;98548.16;5092596;28;20032;-52
2023/06/29 06:50:35;;;;;;;4.28;3.70;;;;;;;34.40;25.77;98526.22;5091934;28;20081;-56
2023/06/29 06:53:00;;;;;;;3.50;3.20;;;;;;;36.48;23.46;98538.91;5093678;28;20031;-57
2023/06/29 06:55:26;;;;;;;5.10;3.33;;;;;;;36.62;22.35;98547.09;5093573;28;20427;-57
2023/06/29 06:57:52;;;;;;;5.30;3.30;;;;;;;36.28;22.85;98533.97;5093518;28;20020;-55
2023/06/29 07:00:18;;;;;;;4.57;3.05;;;;;;;37.90;20.02;98544.88;5093774;28;20054;-59
2023/06/29 07:02:43;;;;;;;9.50;3.40;;;;;;;39.23;18.79;98550.97;5093866;28;20060;-52
2023/06/29 07:05:10;;;;;;;4.47;3.00;;;;;;;40.99;17.17;98544.75;5091420;28;20437;-51
2023/06/29 07:07:36;;;;;;;4.60;3.20;;;;;;;42.33;15.27;98547.97;5093404;28;20093;-51
2023/06/29 07:10:02;;;;;;;5.72;3.30;;;;;;;43.28;14.36;98550.59;5093485;28;20389;-54
2023/06/29 07:12:30;;;;;;;4.20;2.75;;;;;;;44.73;13.16;98542.25;5093103;28;20036;-54
2023/06/29 07:14:55;;;;;;;2.95;2.58;;;;;;;42.59;14.78;98533.28;5093245;28;20404;-53
2023/06/29 07:17:21;;;;;;;4.55;3.30;;;;;;;41.16;16.12;98536.00;5092553;28;20100;-50
2023/06/29 07:19:46;;;;;;;3.63;2.65;;;;;;;41.76;15.24;98537.09;5091510;28;20048;-56
2023/06/29 07:22:12;;;;;;;4.13;2.95;;;;;;;40.25;16.79;98529.84;5093319;28;20040;-49
2023/06/29 07:24:37;;;;;;;5.82;3.08;;;;;;;38.14;18.93;98544.25;5093212;28;20139;-51
2023/06/29 07:27:03;;;;;;;4.30;2.80;;;;;;;38.67;17.93;98532.66;5093013;28;20028;-56
2023/06/29 07:29:30;;;;;;;4.47;2.80;;;;;;;40.25;16.47;98529.00;5091315;28;20039;-53
2023/06/29 07:31:56;;;;;;;4.53;3.13;;;;;;;42.23;14.89;98534.50;5092821;28;20441;-56
2023/06/29 07:34:23;;;;;;;3.92;3.13;;;;;;;43.38;13.43;98537.94;5090906;28;20058;-60
2023/06/29 07:36:50;;;;;;;3.80;2.40;;;;;;;44.96;11.99;98529.19;5065041;28;20470;-61
2023/06/29 07:39:16;;;;;;;6.22;2.70;;;;;;;45.30;11.54;98532.72;5088371;28;20028;-60
2023/06/29 07:41:42;;;;;;;3.40;2.75;;;;;;;46.32;10.58;98498.66;5082363;28;20526;-60
2023/06/29 07:44:08;;;;;;;5.07;2.53;;;;;;;47.26;10.12;98522.31;5071539;28;20055;-60
2023/06/29 07:46:34;;;;;;;4.18;2.65;;;;;;;47.85;9.19;98506.91;5070641;28;20112;-61
2023/06/29 07:49:00;;;;;;;5.88;3.08;;;;;;;48.95;9.21;98510.84;5071678;28;20466;-61
2023/06/29 07:51:31;;;;;;;5.03;3.40;;;;;;;49.87;8.93;98510.88;5069666;28;20029;-62
2023/06/29 07:53:58;;;;;;;7.90;4.28;;;;;;;47.77;9.87;98510.97;5070406;28;20041;-59
2023/06/29 07:56:23;;;;;;;6.68;3.97;;;;;;;43.74;12.75;98501.88;5084158;28;20024;-59
2023/06/29 07:58:49;;;;;;;5.63;4.40;;;;;;;40.63;15.51;98494.06;5072963;28;20032;-60
2023/06/29 08:01:14;;;;;;;6.30;4.00;;;;;;;38.38;17.26;98502.78;5082267;28;20170;-60
2023/06/29 08:03:40;;;;;;;6.68;3.95;;;;;;;36.19;19.15;98473.50;5070811;28;20037;-59
2023/06/29 08:06:05;;;;;;;4.78;4.18;;;;;;;37.60;18.17;98498.22;5071597;28;20033;-57
2023/06/29 08:08:31;;;;;;;6.00;4.43;;;;;;;37.24;18.16;98498.72;5078330;28;20024;-53
2023/06/29 08:10:58;;;;;;;5.30;4.22;;;;;;;37.61;17.67;98473.94;5091912;28;20453;-55
2023/06/29 08:13:24;;;;;;;6.35;4.40;;;;;;;39.11;16.35;98489.41;5092207;28;20434;-55
2023/06/29 08:15:50;;;;;;;6.80;4.05;;;;;;;38.59;16.40;98469.25;5071711;28;20028;-51
2023/06/29 08:18:15;;;;;;;9.00;4.13;;;;;;;39.03;16.69;98483.56;5069498;28;20067;-50
2023/06/29 08:20:41;;;;;;;5.15;4.18;;;;;;;40.13;15.80;98488.66;5087914;28;20507;-57
2023/06/29 08:23:07;;;;;;;6.90;4.40;;;;;;;39.67;15.64;98483.25;5092010;28;20425;-55
2023/06/29 08:25:32;;;;;;;9.60;4.20;;;;;;;37.75;17.77;98498.81;5094685;28;20063;-52
2023/06/29 08:27:58;;;;;;;6.03;4.43;;;;;;;35.54;19.85;98489.13;5094535;28;20044;-53
2023/06/29 08:30:23;;;;;;;4.70;4.20;;;;;;;33.45;21.62;98486.09;5088878;28;20020;-56
2023/06/29 08:32:49;;;;;;;5.50;4.47;;;;;;;31.79;24.26;98495.19;5077524;28;20100;-57
2023/06/29 08:35:15;;;;;;;5.93;4.20;;;;;;;30.16;26.36;98489.84;5076462;28;20411;-54
2023/06/29 08:37:41;;;;;;;8.38;4.13;;;;;;;29.35;27.66;98493.50;5074867;28;20060;-54
2023/06/29 08:40:08;;;;;;;6.40;4.28;;;;;;;28.85;28.04;98487.84;5073730;28;20112;-56
2023/06/29 08:42:37;;;;;;;5.45;3.90;;;;;;;28.47;29.24;98493.63;5074348;28;20123;-55
2023/06/29 08:45:05;;;;;;;11.15;4.20;;;;;;;28.21;28.86;98477.09;5072169;28;20407;-52
2023/06/29 08:47:36;;;;;;;9.98;4.50;;;;;;;28.22;29.33;98498.03;5075271;28;20025;-54
2023/06/29 08:50:05;;;;;;;7.22;4.53;;;;;;;28.00;29.81;98506.47;5074968;28;20036;-56
2023/06/29 08:52:34;;;;;;;6.68;4.22;;;;;;;27.82;29.80;98494.03;5074801;28;20488;-54
2023/06/29 08:55:02;;;;;;;10.23;5.45;;;;;;;27.65;29.89;98495.09;5075015;28;20032;-53
2023/06/29 08:57:31;;;;;;;6.13;5.00;;;;;;;27.32;30.11;98491.63;5075363;28;20443;-55
2023/06/29 08:59:58;;;;;;;8.93;4.68;;;;;;;26.95;30.97;98484.25;5074394;28;20039;-53
2023/06/29 09:02:24;;;;;;;11.05;4.95;;;;;;;26.76;31.58;98479.16;5074267;28;20078;-53
2023/06/29 09:04:50;;;;;;;8.90;4.68;;;;;;;26.51;32.16;98474.31;5075910;28;20024;-58
2023/06/29 09:07:16;;;;;;;7.32;4.55;;;;;;;26.36;32.47;98473.09;5090019;28;20036;-52
2023/06/29 09:09:43;;;;;;;4.93;4.05;;;;;;;26.18;32.27;98465.28;5094607;28;20028;-48
2023/06/29 09:12:10;;;;;;;8.23;4.18;;;;;;;26.05;32.43;98471.97;5082239;28;20510;-52
2023/06/29 09:14:43;;;;;;;8.05;4.03;;;;;;;25.90;32.62;98453.44;5074688;28;20040;-54
2023/06/29 09:17:16;;;;;;;10.93;4.47;;;;;;;25.84;32.95;98466.28;5074970;28;20089;-52
2023/06/29 09:19:51;;;;;;;5.28;3.90;;;;;;;25.78;32.62;98468.13;5073666;28;20059;-52
2023/06/29 09:22:18;;;;;;;;;;;;;;;26.20;31.60;98463.91;5076621;28;20097;-53
2023/06/29 09:24:44;;;;;;;3.80;3.40;;;;;;;25.98;32.53;98446.66;5074691;28;19916;-52
2023/06/29 09:27:10;;;;;;;7.95;3.33;;;;;;;26.07;31.55;98451.41;5074446;28;20109;-54
2023/06/29 09:29:37;;;;;;;4.68;3.00;;;;;;;26.11;31.43;98454.47;5072962;28;20025;-57
2023/06/29 09:32:03;;;;;;;4.65;2.80;;;;;;;26.35;30.63;98438.50;5074784;28;20079;-55
2023/06/29 09:34:29;;;;;;;5.63;2.63;;;;;;;26.50;29.53;98437.00;5074230;28;20359;-57
2023/06/29 09:36:55;;;;;;;4.70;2.85;;;;;;;26.69;30.16;98431.91;5082943;28;20028;-56
2023/06/29 09:39:22;;;;;;;4.47;2.85;;;;;;;26.48;30.17;98387.03;5094209;28;20032;-52
2023/06/29 09:41:49;;;;;;;5.53;4.22;;;;;;;26.72;31.81;98436.84;5094252;28;20028;-55
2023/06/29 09:44:22;;;;;;;6.53;3.75;;;;;;;26.73;32.36;98435.75;5081983;28;20036;-56
2023/06/29 09:47:04;;;;;;;6.30;3.75;;;;;;;26.91;32.50;98428.22;5092619;28;20141;-54
2023/06/29 09:49:30;;;;;;;3.78;2.95;;;;;;;26.82;31.77;98424.31;5085479;28;20336;-55
2023/06/29 09:52:03;;;;;;;8.85;3.67;;;;;;;26.84;31.58;98422.94;5083060;28;20043;-54
2023/06/29 09:54:36;;;;;;;5.38;3.42;;;;;;;26.53;32.49;98416.44;5082430;28;20462;-52
2023/06/29 09:57:02;;;;;;;6.63;3.58;;;;;;;26.31;32.66;98409.16;5085730;28;20109;-55
2023/06/29 09:59:31;;;;;;;7.43;3.60;;;;;;;26.21;33.52;98415.38;5091235;28;20047;-55
2023/06/29 10:01:57;;;;;;;6.85;3.60;;;;;;;25.72;33.77;98386.09;5084617;28;20063;-57
2023/06/29 10:04:24;;;;;;;10.70;3.35;;;;;;;25.51;34.44;98413.28;5093746;28;20078;-51
2023/06/29 10:07:00;;;;;;;5.68;3.80;;;;;;;25.47;34.24;98406.66;5093387;28;20384;-53
2023/06/29 10:09:26;;;;;;;7.40;3.50;;;;;;;25.20;34.79;98374.56;5092757;28;20362;-56
2023/06/29 10:11:55;;;;;;;4.32;3.30;;;;;;;25.25;34.56;98431.31;5093448;28;20032;-57
2023/06/29 10:14:22;;;;;;;5.85;3.63;;;;;;;24.90;35.33;98408.69;5093967;28;20043;-50
2023/06/29 10:16:52;;;;;;;6.10;3.80;;;;;;;24.79;35.69;98403.06;5094078;28;20523;-51
2023/06/29 10:19:23;;;;;;;6.72;3.47;;;;;;;24.73;35.63;98401.31;5093676;28;20089;-56
2023/06/29 10:21:54;;;;;;;7.90;3.33;;;;;;;24.50;35.96;98384.00;5087431;28;20509;-60
2023/06/29 10:24:24;;;;;;;5.85;3.90;;;;;;;24.68;35.21;98420.41;5073114;28;20067;-56
2023/06/29 10:26:51;;;;;;;6.63;3.95;;;;;;;24.23;35.68;98351.88;5072832;28;20429;-54
2023/06/29 10:29:16;;;;;;;5.80;3.60;;;;;;;24.46;36.28;98393.81;5073153;28;20029;-54
2023/06/29 10:31:48;;;;;;;9.13;3.97;;;;;;;24.45;36.12;98394.88;5073588;28;20039;-52
2023/06/29 10:34:14;;;;;;;7.75;4.00;;;;;;;24.34;36.65;98396.63;5072477;28;20047;-56
2023/06/29 10:36:45;;;;;;;8.55;4.15;;;;;;;24.41;36.48;98407.41;5072538;28;20028;-56
2023/06/29 10:39:38;;;;;;;7.05;4.50;;;;;;;24.61;36.05;98385.00;5072296;28;20466;-54
2023/06/29 10:42:39;;;;;;;5.13;3.95;;;;;;;24.79;35.88;98385.81;5072863;28;20028;-52
2023/06/29 10:45:17;;;;;;;7.88;4.53;;;;;;;24.90;35.58;98393.06;5065403;28;20050;-60
2023/06/29 10:47:55;;;;;;;6.88;4.68;;;;;;;24.44;36.64;98387.75;5076035;28;20337;-56
2023/06/29 10:50:24;;;;;;;5.43;4.38;;;;;;;24.26;37.07;98375.19;5073236;28;20028;-53
2023/06/29 10:52:51;;;;;;;7.65;5.13;;;;;;;24.23;37.04;98362.81;5076413;28;20024;-61
2023/06/29 10:55:26;;;;;;;9.18;4.93;;;;;;;24.55;36.18;98368.75;5075414;28;20051;-57
2023/06/29 10:57:54;;;;;;;9.05;5.28;;;;;;;24.47;36.10;98359.06;5070603;28;20370;-57
2023/06/29 11:00:22;;;;;;;8.02;5.28;;;;;;;24.42;36.10;98368.03;5072579;28;20037;-59
2023/06/29 11:02:48;;;;;;;7.10;5.70;;;;;;;24.64;35.74;98372.72;5072665;28;20025;-50
2023/06/29 11:05:15;;;;;;;12.60;6.07;;;;;;;24.71;35.49;98373.38;5072122;28;20043;-54
2023/06/29 11:07:41;;;;;;;7.18;5.13;;;;;;;24.70;35.16;98360.75;5071935;28;20082;-55
2023/06/29 11:10:07;;;;;;;8.38;5.28;;;;;;;24.45;35.07;98367.53;5072632;28;20089;-56
2023/06/29 11:12:36;;;;;;;8.40;5.32;;;;;;;23.94;35.80;98334.72;5073946;28;20063;-53
2023/06/29 11:15:03;;;;;;;12.27;6.20;;;;;;;23.78;36.81;98382.81;5072165;28;20039;-53
2023/06/29 11:17:30;;;;;;;9.35;6.47;;;;;;;23.56;37.73;98363.59;5072435;28;20036;-51
2023/06/29 11:19:55;;;;;;;10.57;7.32;;;;;;;23.41;38.20;98375.06;5072169;28;20071;-53
2023/06/29 11:22:21;;;;;;;11.80;6.28;;;;;;;23.31;38.51;98367.50;5072667;28;20040;-56
2023/06/29 11:24:47;;;;;;;11.15;5.05;;;;;;;23.30;37.88;98361.19;5074321;28;20041;-53
2023/06/29 11:27:18;;;;;;;10.63;4.88;;;;;;;23.45;37.94;98373.50;5072374;28;20139;-53